Time;durP1;ratioP1;P1;durP2;ratioP2;P2;SDS_P1;SDS_P2;PMS_P1;PMS_P2;Temp;Humidity;BMP_temperature;BMP_pressure;BME280_temperature;BME280_humidity;BME280_pressure;Samples;Min_cycle;Max_cycle;Signal;HPM_P1;HPM_P2
2021/10/07 00:00:47;;;;;;;3.40;3.10;;;9.10;99.90;;;;;;5009248;28;20243;-59
2021/10/07 00:03:12;;;;;;;5.17;3.63;;;9.10;99.90;;;;;;5011807;28;20939;-57
2021/10/07 00:05:38;;;;;;;3.27;2.97;;;9.10;99.90;;;;;;5014127;28;20184;-55
2021/10/07 00:08:05;;;;;;;2.80;2.57;;;9.10;99.90;;;;;;5009226;28;20202;-57
2021/10/07 00:10:31;;;;;;;7.33;3.00;;;9.10;99.90;;;;;;5013110;28;20172;-58
2021/10/07 00:12:57;;;;;;;5.13;3.60;;;9.10;99.90;;;;;;5012307;28;20435;-57
2021/10/07 00:15:23;;;;;;;8.03;3.37;;;9.10;99.90;;;;;;5012170;28;20630;-57
2021/10/07 00:17:48;;;;;;;8.40;3.70;;;9.10;99.90;;;;;;5013430;28;20566;-57
2021/10/07 00:20:15;;;;;;;6.33;3.07;;;9.10;99.90;;;;;;5015360;28;20251;-58
2021/10/07 00:22:42;;;;;;;2.87;2.67;;;9.10;99.90;;;;;;5013203;28;20283;-56
2021/10/07 00:25:12;;;;;;;4.10;3.10;;;9.10;99.90;;;;;;5012065;28;20495;-58
2021/10/07 00:27:38;;;;;;;4.33;3.00;;;9.10;99.90;;;;;;5010536;28;20433;-57
2021/10/07 00:30:13;;;;;;;5.07;3.13;;;9.10;99.90;;;;;;5012685;28;20807;-56
2021/10/07 00:33:24;;;;;;;3.13;2.90;;;9.10;99.90;;;;;;5012746;28;20601;-57
2021/10/07 00:40:47;;;;;;;2.87;2.63;;;9.10;99.90;;;;;;5014677;28;20405;-57
2021/10/07 00:43:12;;;;;;;4.97;3.00;;;9.00;99.90;;;;;;5013938;28;20437;-55
2021/10/07 00:45:38;;;;;;;3.33;2.30;;;9.00;99.90;;;;;;5013313;28;20552;-56
2021/10/07 00:48:04;;;;;;;4.73;2.70;;;9.00;99.90;;;;;;5012636;28;20225;-56
2021/10/07 00:50:29;;;;;;;3.20;2.57;;;9.00;99.90;;;;;;5013004;28;20181;-57
2021/10/07 00:52:55;;;;;;;3.40;2.57;;;9.00;99.90;;;;;;5009838;28;20252;-56
2021/10/07 00:55:21;;;;;;;4.10;3.07;;;9.00;99.90;;;;;;5013742;28;20184;-57
2021/10/07 00:57:47;;;;;;;4.93;2.60;;;8.90;99.90;;;;;;5015036;28;20183;-57
2021/10/07 01:00:14;;;;;;;6.57;2.60;;;8.90;99.90;;;;;;5008477;28;20199;-56
2021/10/07 01:02:40;;;;;;;3.77;2.80;;;8.90;99.90;;;;;;5019891;28;20482;-55
2021/10/07 01:05:06;;;;;;;3.50;2.93;;;8.90;99.90;;;;;;5018463;28;21308;-56
2021/10/07 01:07:32;;;;;;;5.00;3.40;;;8.90;99.90;;;;;;5017489;28;20175;-56
2021/10/07 01:09:58;;;;;;;6.20;3.20;;;8.90;99.90;;;;;;5018411;28;20415;-56
2021/10/07 01:12:24;;;;;;;4.20;2.80;;;8.90;99.90;;;;;;5014651;28;20410;-56
2021/10/07 01:14:54;;;;;;;7.43;2.77;;;8.90;99.90;;;;;;5017305;28;20430;-57
2021/10/07 01:17:22;;;;;;;4.80;3.13;;;9.00;99.90;;;;;;5019405;28;20190;-57
2021/10/07 01:19:49;;;;;;;3.93;2.97;;;9.00;99.90;;;;;;5015960;28;21391;-57
2021/10/07 01:22:16;;;;;;;3.13;2.80;;;9.00;99.90;;;;;;5013088;28;20426;-56
2021/10/07 01:24:42;;;;;;;3.50;3.20;;;9.00;99.90;;;;;;5017120;28;20414;-56
2021/10/07 01:27:08;;;;;;;3.70;3.00;;;9.00;99.90;;;;;;5018021;28;20415;-56
2021/10/07 01:29:35;;;;;;;4.30;3.10;;;9.00;99.90;;;;;;5016159;28;20825;-58
2021/10/07 01:32:05;;;;;;;4.30;3.20;;;9.00;99.90;;;;;;5009384;28;20947;-57
2021/10/07 01:34:31;;;;;;;4.90;3.00;;;9.00;99.90;;;;;;5004592;28;20728;-56
2021/10/07 01:36:58;;;;;;;3.90;3.43;;;9.00;99.90;;;;;;5003212;28;20906;-57
2021/10/07 01:39:23;;;;;;;6.40;3.20;;;9.00;99.90;;;;;;5001093;28;20181;-56
2021/10/07 01:41:50;;;;;;;3.83;3.20;;;9.00;99.90;;;;;;5001930;28;20434;-57
2021/10/07 01:44:23;;;;;;;6.47;3.20;;;9.00;99.90;;;;;;5003821;28;20208;-57
2021/10/07 01:46:49;;;;;;;4.40;3.50;;;9.00;99.90;;;;;;5002110;28;20427;-58
2021/10/07 01:49:15;;;;;;;6.80;3.90;;;9.00;99.90;;;;;;5004650;28;20419;-57
2021/10/07 01:51:42;;;;;;;3.33;3.10;;;8.90;99.90;;;;;;5002986;28;20432;-58
2021/10/07 01:54:08;;;;;;;3.90;3.00;;;8.90;99.90;;;;;;5002713;28;20835;-57
2021/10/07 01:56:34;;;;;;;3.97;3.20;;;8.90;99.90;;;;;;5002491;28;20463;-57
2021/10/07 01:59:00;;;;;;;3.67;3.37;;;8.90;99.90;;;;;;5001771;28;20670;-55
2021/10/07 02:01:26;;;;;;;3.67;2.90;;;8.90;99.90;;;;;;4999416;28;20434;-55
2021/10/07 02:03:52;;;;;;;5.90;3.40;;;8.90;99.90;;;;;;5019428;28;20987;-55
2021/10/07 02:06:18;;;;;;;3.83;3.10;;;8.90;99.90;;;;;;5003067;28;20444;-56
2021/10/07 02:08:44;;;;;;;4.07;2.90;;;8.90;99.90;;;;;;5001395;28;20185;-56
2021/10/07 02:11:10;;;;;;;3.23;2.83;;;8.90;99.90;;;;;;5002662;28;21020;-56
2021/10/07 02:13:36;;;;;;;6.43;3.30;;;8.90;99.90;;;;;;5003178;28;20200;-56
2021/10/07 02:16:02;;;;;;;4.87;3.13;;;8.90;99.90;;;;;;4999924;28;20554;-55
2021/10/07 02:18:28;;;;;;;5.30;2.73;;;8.80;99.90;;;;;;5001001;28;20530;-56
2021/10/07 02:20:54;;;;;;;4.73;3.23;;;8.80;99.90;;;;;;5004694;28;20507;-55
2021/10/07 02:23:20;;;;;;;7.30;3.40;;;8.80;99.90;;;;;;5002488;28;20193;-55
2021/10/07 02:25:46;;;;;;;9.20;3.00;;;8.90;99.90;;;;;;5002942;28;20504;-55
2021/10/07 02:28:13;;;;;;;4.60;2.80;;;8.90;99.90;;;;;;4998019;28;20435;-56
2021/10/07 02:30:40;;;;;;;3.83;3.27;;;8.90;99.90;;;;;;5000017;28;21210;-56
2021/10/07 02:33:05;;;;;;;3.20;2.87;;;8.80;99.90;;;;;;5000295;28;20497;-56
2021/10/07 02:35:31;;;;;;;2.87;2.67;;;8.80;99.90;;;;;;5008859;28;20470;-57
2021/10/07 02:37:56;;;;;;;6.73;3.47;;;8.80;99.90;;;;;;5000556;28;20585;-55
2021/10/07 02:40:22;;;;;;;3.10;2.60;;;8.80;99.90;;;;;;5007285;28;20554;-57
2021/10/07 02:42:48;;;;;;;7.17;2.70;;;8.80;99.90;;;;;;4999145;28;20591;-55
2021/10/07 02:45:16;;;;;;;3.60;3.30;;;8.80;99.90;;;;;;5010581;28;20474;-56
2021/10/07 02:47:42;;;;;;;4.60;2.77;;;8.80;99.90;;;;;;5010632;28;20597;-57
2021/10/07 02:50:09;;;;;;;5.50;3.40;;;8.80;99.90;;;;;;5003659;28;20431;-57
2021/10/07 02:52:35;;;;;;;4.90;2.80;;;8.80;99.90;;;;;;5001425;28;20987;-56
2021/10/07 02:55:01;;;;;;;3.77;3.30;;;8.80;99.90;;;;;;4993366;28;20434;-56
2021/10/07 02:57:26;;;;;;;7.03;2.97;;;8.80;99.90;;;;;;4999240;28;20935;-56
2021/10/07 02:59:52;;;;;;;5.43;3.20;;;8.70;99.90;;;;;;5002281;28;20785;-56
2021/10/07 03:02:18;;;;;;;9.80;3.10;;;8.70;99.90;;;;;;5016145;28;20244;-56
2021/10/07 03:04:44;;;;;;;4.07;2.83;;;8.70;99.90;;;;;;4999885;28;20177;-58
2021/10/07 03:07:11;;;;;;;4.20;3.00;;;8.70;99.90;;;;;;5005449;28;20668;-56
2021/10/07 03:09:38;;;;;;;5.30;3.70;;;8.60;99.90;;;;;;5008310;28;20507;-55
2021/10/07 03:12:05;;;;;;;9.70;3.67;;;8.60;99.90;;;;;;5007649;28;20581;-56
2021/10/07 03:14:31;;;;;;;5.90;3.50;;;8.60;99.90;;;;;;4990492;28;20722;-57
2021/10/07 03:16:57;;;;;;;2.50;2.30;;;8.50;99.90;;;;;;4990766;28;20478;-56
2021/10/07 03:19:22;;;;;;;4.93;2.30;;;8.50;99.90;;;;;;5002167;28;20724;-55
2021/10/07 03:21:48;;;;;;;2.07;1.90;;;8.50;99.90;;;;;;5007548;28;20267;-56
2021/10/07 03:24:14;;;;;;;3.17;2.27;;;8.50;99.90;;;;;;5005936;28;20196;-56
2021/10/07 03:26:39;;;;;;;3.87;2.00;;;8.40;99.90;;;;;;5005779;28;20725;-57
2021/10/07 03:29:05;;;;;;;8.30;2.23;;;8.40;99.90;;;;;;5004964;28;20189;-56
2021/10/07 03:31:31;;;;;;;5.93;2.53;;;8.30;99.90;;;;;;5000162;28;20267;-57
2021/10/07 03:33:56;;;;;;;2.10;1.97;;;8.30;99.90;;;;;;4994922;28;20208;-56
2021/10/07 03:36:22;;;;;;;2.50;2.30;;;8.30;99.90;;;;;;5006592;28;20200;-56
2021/10/07 03:38:47;;;;;;;3.40;2.20;;;8.30;99.90;;;;;;4992386;28;20343;-55
2021/10/07 03:41:13;;;;;;;4.27;3.10;;;8.30;99.90;;;;;;5009246;28;20227;-57
2021/10/07 03:43:39;;;;;;;4.93;2.80;;;8.30;99.90;;;;;;5002604;28;20562;-56
2021/10/07 03:46:04;;;;;;;4.57;3.33;;;8.40;99.90;;;;;;5002090;28;20184;-54
2021/10/07 03:48:30;;;;;;;2.40;2.20;;;8.40;99.90;;;;;;5018375;28;20614;-57
2021/10/07 03:50:56;;;;;;;5.30;2.50;;;8.40;99.90;;;;;;5011526;28;20780;-57
2021/10/07 03:53:23;;;;;;;6.00;2.17;;;8.40;99.90;;;;;;4994523;28;20728;-56
2021/10/07 03:55:48;;;;;;;2.80;2.10;;;8.40;99.90;;;;;;4999795;28;20223;-55
2021/10/07 03:58:14;;;;;;;8.10;4.00;;;8.40;99.90;;;;;;4998812;28;20807;-56
2021/10/07 04:00:40;;;;;;;3.13;2.57;;;8.50;99.90;;;;;;4991675;28;20181;-55
2021/10/07 04:03:06;;;;;;;3.80;3.13;;;8.50;99.90;;;;;;4990304;28;20193;-55
2021/10/07 04:05:32;;;;;;;3.03;2.73;;;8.50;99.90;;;;;;5000283;28;20181;-55
2021/10/07 04:07:58;;;;;;;4.73;2.97;;;8.50;99.90;;;;;;4988273;28;20185;-56
2021/10/07 04:10:23;;;;;;;7.83;3.13;;;8.50;99.90;;;;;;4993365;28;20186;-53
2021/10/07 04:12:49;;;;;;;5.40;3.13;;;8.50;99.90;;;;;;4997822;28;20826;-53
2021/10/07 04:15:14;;;;;;;4.10;3.23;;;8.50;99.90;;;;;;4993932;28;20207;-54
2021/10/07 04:17:40;;;;;;;3.50;3.20;;;8.50;99.90;;;;;;4996611;28;20173;-58
2021/10/07 04:20:06;;;;;;;8.20;3.80;;;8.50;99.90;;;;;;4993815;28;20181;-56
2021/10/07 04:22:32;;;;;;;4.83;2.77;;;8.50;99.90;;;;;;4999181;28;20201;-56
2021/10/07 04:24:57;;;;;;;3.40;2.80;;;8.50;99.90;;;;;;5005699;28;20500;-57
2021/10/07 04:27:24;;;;;;;7.03;2.97;;;8.50;99.90;;;;;;5000586;28;20188;-59
2021/10/07 04:29:49;;;;;;;2.57;2.30;;;8.50;99.90;;;;;;4997737;28;20200;-56
2021/10/07 04:32:15;;;;;;;5.37;2.10;;;8.50;99.90;;;;;;4998245;28;20467;-55
2021/10/07 04:34:40;;;;;;;5.90;3.00;;;8.60;99.90;;;;;;4989297;28;20184;-55
2021/10/07 04:37:06;;;;;;;5.17;2.77;;;8.60;99.90;;;;;;4997909;28;20227;-57
2021/10/07 04:39:32;;;;;;;4.30;1.97;;;8.50;99.90;;;;;;5003363;28;20500;-53
2021/10/07 04:41:58;;;;;;;2.50;1.90;;;8.50;99.90;;;;;;4998343;28;20188;-59
2021/10/07 04:44:23;;;;;;;1.93;1.73;;;8.50;99.90;;;;;;5004637;28;20308;-57
2021/10/07 04:46:49;;;;;;;3.37;1.70;;;8.50;99.90;;;;;;5002266;28;20200;-58
2021/10/07 04:49:15;;;;;;;4.70;2.23;;;8.40;99.90;;;;;;4998495;28;20204;-56
2021/10/07 04:51:40;;;;;;;2.63;2.10;;;8.40;99.90;;;;;;5000242;28;20533;-59
2021/10/07 04:54:06;;;;;;;2.30;2.10;;;8.40;99.90;;;;;;4995041;28;20236;-58
2021/10/07 04:56:32;;;;;;;3.27;2.50;;;8.40;99.90;;;;;;5005492;28;20290;-59
2021/10/07 04:58:57;;;;;;;6.67;3.27;;;8.30;99.90;;;;;;5009866;28;20180;-58
2021/10/07 05:01:23;;;;;;;7.20;3.80;;;8.30;99.90;;;;;;5003920;28;20209;-58
2021/10/07 05:03:50;;;;;;;7.40;3.90;;;8.20;99.90;;;;;;4992332;28;20588;-58
2021/10/07 05:06:17;;;;;;;3.13;2.47;;;8.20;99.90;;;;;;4999416;28;20180;-57
2021/10/07 05:08:42;;;;;;;5.53;2.67;;;8.20;99.90;;;;;;5010312;28;20435;-56
2021/10/07 05:11:08;;;;;;;6.30;2.40;;;8.20;99.90;;;;;;4994791;28;20426;-57
2021/10/07 05:13:35;;;;;;;5.47;2.87;;;8.10;99.90;;;;;;5000458;28;20235;-56
2021/10/07 05:16:00;;;;;;;2.47;2.27;;;8.20;99.90;;;;;;5014460;28;20208;-56
2021/10/07 05:18:26;;;;;;;3.97;3.23;;;8.20;99.90;;;;;;5012842;28;20845;-57
2021/10/07 05:20:53;;;;;;;7.43;3.50;;;8.20;99.90;;;;;;5010791;28;20191;-56
2021/10/07 05:23:19;;;;;;;10.67;4.77;;;8.20;99.90;;;;;;5001591;28;20678;-56
2021/10/07 05:25:47;;;;;;;9.27;3.37;;;8.20;99.90;;;;;;4996669;28;20458;-55
2021/10/07 05:28:13;;;;;;;6.80;3.10;;;8.20;99.90;;;;;;5016676;28;20415;-57
2021/10/07 05:30:39;;;;;;;10.40;4.33;;;8.10;99.90;;;;;;5024311;28;20502;-58
2021/10/07 05:33:04;;;;;;;12.63;3.50;;;8.10;99.90;;;;;;5018576;28;20549;-57
2021/10/07 05:35:30;;;;;;;9.33;3.10;;;8.10;99.90;;;;;;5014913;28;20665;-59
2021/10/07 05:37:55;;;;;;;7.23;2.77;;;8.10;99.90;;;;;;5021731;28;20176;-58
2021/10/07 05:40:21;;;;;;;6.40;3.27;;;8.10;99.90;;;;;;5019386;28;20239;-58
2021/10/07 05:45:15;;;;;;;8.40;3.50;;;8.10;99.90;;;;;;5009944;28;20236;-60
2021/10/07 05:47:41;;;;;;;9.43;4.40;;;8.10;99.90;;;;;;5012001;28;20527;-59
2021/10/07 05:50:09;;;;;;;13.47;3.53;;;8.10;99.90;;;;;;5024472;28;20176;-60
2021/10/07 05:52:36;;;;;;;11.10;3.90;;;8.10;99.90;;;;;;5009922;28;20415;-60
2021/10/07 05:55:03;;;;;;;8.20;3.30;;;8.10;99.90;;;;;;5010989;28;20833;-59
2021/10/07 05:57:28;;;;;;;5.73;4.30;;;8.20;99.90;;;;;;5010530;28;20431;-60
2021/10/07 05:59:54;;;;;;;5.83;3.77;;;8.20;99.90;;;;;;5007636;28;20973;-58
2021/10/07 06:02:19;;;;;;;5.40;3.47;;;8.20;99.90;;;;;;5006541;28;20181;-59
2021/10/07 06:04:45;;;;;;;3.10;2.77;;;8.20;99.90;;;;;;5005576;28;20208;-60
2021/10/07 06:07:11;;;;;;;10.13;3.40;;;8.20;99.90;;;;;;5009123;28;20637;-59
2021/10/07 06:09:36;;;;;;;5.87;2.70;;;8.20;99.90;;;;;;5010367;28;20306;-59
2021/10/07 06:12:03;;;;;;;5.30;2.27;;;8.20;99.90;;;;;;5009729;28;20680;-59
2021/10/07 06:14:29;;;;;;;4.50;1.90;;;8.20;99.90;;;;;;5008592;28;20204;-59
2021/10/07 06:16:54;;;;;;;2.67;2.40;;;8.20;99.90;;;;;;5004377;28;20477;-59
2021/10/07 06:19:23;;;;;;;5.53;2.27;;;8.10;99.90;;;;;;5007224;28;20559;-59
2021/10/07 06:21:50;;;;;;;2.20;1.93;;;8.20;99.90;;;;;;5006040;28;20263;-59
2021/10/07 06:24:15;;;;;;;4.37;2.23;;;8.10;99.90;;;;;;5009480;28;20479;-59
2021/10/07 06:26:42;;;;;;;2.83;2.33;;;8.20;99.90;;;;;;5010283;28;20471;-61
2021/10/07 06:29:08;;;;;;;3.40;2.70;;;8.20;99.90;;;;;;5004539;28;20188;-59
2021/10/07 06:31:36;;;;;;;6.33;3.17;;;8.20;99.90;;;;;;5009267;28;20924;-59
2021/10/07 06:34:02;;;;;;;4.47;2.50;;;8.20;99.90;;;;;;5008150;28;20665;-59
2021/10/07 06:36:28;;;;;;;5.50;3.27;;;8.30;99.90;;;;;;5003463;28;20566;-59
2021/10/07 06:38:54;;;;;;;5.80;3.17;;;8.30;99.90;;;;;;5006360;28;20980;-57
2021/10/07 06:41:22;;;;;;;5.30;3.30;;;8.40;99.90;;;;;;5006417;28;20177;-59
2021/10/07 06:43:48;;;;;;;14.80;3.50;;;8.40;99.90;;;;;;5022635;28;20290;-59
2021/10/07 06:46:13;;;;;;;7.90;3.77;;;8.50;99.90;;;;;;5006912;28;20924;-58
2021/10/07 06:48:40;;;;;;;5.10;3.37;;;8.50;99.90;;;;;;5001934;28;20688;-60
2021/10/07 06:51:09;;;;;;;7.57;3.80;;;8.60;99.90;;;;;;5023705;28;20180;-59
2021/10/07 06:53:39;;;;;;;5.00;3.67;;;8.70;99.90;;;;;;5007493;28;20509;-59
2021/10/07 06:56:05;;;;;;;5.30;3.70;;;8.70;99.90;;;;;;5006443;28;20839;-58
2021/10/07 06:58:31;;;;;;;5.13;3.77;;;8.80;99.90;;;;;;5006442;28;20430;-61
2021/10/07 07:00:57;;;;;;;6.37;4.00;;;8.80;99.90;;;;;;5006666;28;20415;-58
2021/10/07 07:03:22;;;;;;;3.60;3.30;;;8.80;99.90;;;;;;5013374;28;20213;-59
2021/10/07 07:05:48;;;;;;;6.33;3.53;;;8.90;99.90;;;;;;5002645;28;20184;-59
2021/10/07 07:08:14;;;;;;;3.87;3.43;;;8.90;99.90;;;;;;5004945;28;20211;-59
2021/10/07 07:10:40;;;;;;;9.03;4.10;;;8.90;99.90;;;;;;4993647;28;20311;-60
2021/10/07 07:13:06;;;;;;;5.30;4.20;;;9.00;99.90;;;;;;5004459;28;20350;-59
2021/10/07 07:15:33;;;;;;;9.83;4.57;;;9.10;99.90;;;;;;5010011;28;20746;-60
2021/10/07 07:17:59;;;;;;;5.10;4.30;;;9.10;99.90;;;;;;5021023;28;20940;-59
2021/10/07 07:20:24;;;;;;;4.20;3.80;;;9.20;99.90;;;;;;5003810;28;20442;-59
2021/10/07 07:22:51;;;;;;;5.03;3.90;;;9.30;99.90;;;;;;5003700;28;20185;-60
2021/10/07 07:25:16;;;;;;;4.23;3.73;;;9.30;99.90;;;;;;5002704;28;20173;-59
2021/10/07 07:27:44;;;;;;;7.27;4.60;;;9.40;99.90;;;;;;5005600;28;20439;-59
2021/10/07 07:30:11;;;;;;;10.10;4.70;;;9.40;99.90;;;;;;5003552;28;20481;-59
2021/10/07 07:32:37;;;;;;;7.20;4.57;;;9.50;99.90;;;;;;5007878;28;20418;-60
2021/10/07 07:35:03;;;;;;;7.30;4.83;;;9.60;99.90;;;;;;5028679;28;20509;-60
2021/10/07 07:37:29;;;;;;;4.73;4.30;;;9.60;99.90;;;;;;5001424;28;20447;-59
2021/10/07 07:39:55;;;;;;;6.37;4.43;;;9.70;99.90;;;;;;5009490;28;20436;-60
2021/10/07 07:42:20;;;;;;;10.77;4.47;;;9.70;99.90;;;;;;5009912;28;20621;-61
2021/10/07 07:44:47;;;;;;;6.20;3.97;;;9.80;99.90;;;;;;5009338;28;20227;-59
2021/10/07 07:47:12;;;;;;;4.93;3.83;;;10.00;99.90;;;;;;5001543;28;20664;-59
2021/10/07 07:49:41;;;;;;;5.37;4.10;;;10.00;99.90;;;;;;5024695;28;20432;-59
2021/10/07 07:52:07;;;;;;;4.83;3.70;;;10.10;99.90;;;;;;5012797;28;20259;-58
2021/10/07 07:54:33;;;;;;;3.47;2.63;;;10.30;99.90;;;;;;5008369;28;20597;-59
2021/10/07 07:56:59;;;;;;;3.20;3.00;;;10.40;99.90;;;;;;5005700;28;20467;-59
2021/10/07 07:59:24;;;;;;;3.77;3.07;;;10.40;99.90;;;;;;5009979;28;20192;-59
2021/10/07 08:01:50;;;;;;;3.03;2.63;;;10.40;99.90;;;;;;5009171;28;20212;-59
2021/10/07 08:04:16;;;;;;;2.90;2.50;;;10.50;99.90;;;;;;5008020;28;20284;-59
2021/10/07 08:06:41;;;;;;;2.07;1.97;;;10.60;99.90;;;;;;5006298;28;20227;-59
2021/10/07 08:09:08;;;;;;;2.40;2.13;;;10.70;99.90;;;;;;5024005;28;20176;-60
2021/10/07 08:11:39;;;;;;;3.03;2.10;;;10.90;99.90;;;;;;4998970;28;20184;-59
2021/10/07 08:14:06;;;;;;;3.80;2.17;;;11.00;99.90;;;;;;4996141;28;20495;-57
2021/10/07 08:16:32;;;;;;;2.40;2.20;;;11.10;99.90;;;;;;5002626;28;20455;-59
2021/10/07 08:18:58;;;;;;;2.10;1.90;;;11.20;99.90;;;;;;5002655;28;20432;-58
2021/10/07 08:21:25;;;;;;;3.00;2.07;;;11.20;99.90;;;;;;5008327;28;20893;-59
2021/10/07 08:23:50;;;;;;;2.40;2.20;;;11.20;99.90;;;;;;5003563;28;20517;-59
2021/10/07 08:26:16;;;;;;;2.20;2.00;;;11.10;99.90;;;;;;4999363;28;20448;-59
2021/10/07 08:28:42;;;;;;;2.87;2.60;;;11.00;99.90;;;;;;5001716;28;20466;-58
2021/10/07 08:31:09;;;;;;;2.47;2.00;;;10.90;99.90;;;;;;5008610;28;20560;-58
2021/10/07 08:33:35;;;;;;;4.37;2.30;;;10.80;99.90;;;;;;5018112;28;20219;-59
2021/10/07 08:36:00;;;;;;;2.97;2.67;;;10.70;99.90;;;;;;5002060;28;20460;-58
2021/10/07 08:38:28;;;;;;;2.17;2.07;;;10.70;99.90;;;;;;5005594;28;20195;-58
2021/10/07 08:40:54;;;;;;;1.90;1.77;;;10.60;99.90;;;;;;5001401;28;20166;-59
2021/10/07 08:43:23;;;;;;;2.53;2.17;;;10.60;99.90;;;;;;5006430;28;20466;-58
2021/10/07 08:45:49;;;;;;;3.10;2.60;;;10.60;99.90;;;;;;4997367;28;20215;-58
2021/10/07 08:48:15;;;;;;;2.63;1.97;;;10.50;99.90;;;;;;5010111;28;20454;-59
2021/10/07 08:50:41;;;;;;;2.47;2.27;;;10.50;99.90;;;;;;5008936;28;20265;-59
2021/10/07 08:53:08;;;;;;;3.00;2.60;;;10.50;99.90;;;;;;5023954;28;20955;-59
2021/10/07 08:55:34;;;;;;;2.87;2.67;;;10.40;99.90;;;;;;5000490;28;20200;-59
2021/10/07 08:57:59;;;;;;;3.60;2.50;;;10.40;99.90;;;;;;5010291;28;21188;-58
2021/10/07 09:00:25;;;;;;;2.63;2.43;;;10.30;99.90;;;;;;5009022;28;20507;-58
2021/10/07 09:02:51;;;;;;;17.90;8.70;;;10.40;99.90;;;;;;5006137;28;20176;-58
2021/10/07 09:05:23;;;;;;;3.97;2.93;;;10.40;99.90;;;;;;5002570;28;20180;-59
2021/10/07 09:08:02;;;;;;;3.20;2.37;;;10.40;99.90;;;;;;5003730;28;20172;-58
2021/10/07 09:10:34;;;;;;;5.43;3.30;;;10.40;99.90;;;;;;5004577;28;20486;-58
2021/10/07 09:13:21;;;;;;;3.07;2.77;;;10.40;99.90;;;;;;5003592;28;20432;-59
2021/10/07 09:15:50;;;;;;;4.70;2.83;;;10.40;99.90;;;;;;5007815;28;20513;-59
2021/10/07 09:18:18;;;;;;;2.77;2.57;;;10.40;99.90;;;;;;5008099;28;20412;-58
2021/10/07 09:20:48;;;;;;;3.10;2.83;;;10.40;99.90;;;;;;5006084;28;20434;-58
2021/10/07 09:23:19;;;;;;;3.23;2.60;;;10.40;99.90;;;;;;5009385;28;20890;-59
2021/10/07 09:26:04;;;;;;;2.97;2.77;;;10.40;99.90;;;;;;5011495;28;20442;-58
2021/10/07 09:28:57;;;;;;;5.50;2.70;;;10.40;99.90;;;;;;5026551;28;20831;-58
2021/10/07 09:31:27;;;;;;;4.00;3.50;;;10.30;99.90;;;;;;5011082;28;21091;-59
2021/10/07 09:34:02;;;;;;;3.90;2.80;;;10.30;99.90;;;;;;5011331;28;20771;-60
2021/10/07 09:36:28;;;;;;;3.43;3.00;;;10.30;99.90;;;;;;5009683;28;20474;-59
2021/10/07 09:38:54;;;;;;;3.97;2.90;;;10.30;99.90;;;;;;5010013;28;20865;-58
2021/10/07 09:41:26;;;;;;;4.47;2.93;;;10.30;99.90;;;;;;5007383;28;20442;-58
2021/10/07 09:43:58;;;;;;;3.70;2.73;;;10.30;99.90;;;;;;5005590;28;20524;-57
2021/10/07 09:46:42;;;;;;;4.80;2.60;;;10.30;99.90;;;;;;5007849;28;20437;-60
2021/10/07 09:49:14;;;;;;;3.50;2.73;;;10.30;99.90;;;;;;5008199;28;20435;-60
2021/10/07 09:51:55;;;;;;;4.70;2.70;;;10.30;99.90;;;;;;5008831;28;20434;-60
2021/10/07 09:54:27;;;;;;;4.00;3.00;;;10.40;99.90;;;;;;5008506;28;20485;-58
2021/10/07 09:56:58;;;;;;;8.13;2.87;;;10.40;99.90;;;;;;5008219;28;20466;-58
2021/10/07 09:59:25;;;;;;;6.50;3.03;;;10.40;99.90;;;;;;5009533;28;20445;-59
2021/10/07 10:01:54;;;;;;;2.77;2.57;;;10.40;99.90;;;;;;5007172;28;22435;-59
2021/10/07 10:04:20;;;;;;;3.10;2.80;;;10.50;99.90;;;;;;5008646;28;20438;-59
2021/10/07 10:06:46;;;;;;;3.43;2.93;;;10.50;99.90;;;;;;5009799;28;20773;-59
2021/10/07 10:09:12;;;;;;;2.70;2.47;;;10.60;99.90;;;;;;5007139;28;20489;-61
2021/10/07 10:11:40;;;;;;;3.30;3.00;;;10.60;99.90;;;;;;5003804;28;20653;-59
2021/10/07 10:14:06;;;;;;;3.30;2.27;;;10.60;99.90;;;;;;5002964;28;20200;-60
2021/10/07 10:16:35;;;;;;;2.47;2.27;;;10.70;99.90;;;;;;5009528;28;20952;-60
2021/10/07 10:19:02;;;;;;;3.87;2.67;;;10.70;99.90;;;;;;5008600;28;20482;-61
2021/10/07 10:21:34;;;;;;;2.50;2.30;;;10.70;99.90;;;;;;5011361;28;20404;-59
2021/10/07 10:24:03;;;;;;;2.20;2.00;;;10.70;99.90;;;;;;5009517;28;20827;-60
2021/10/07 10:26:30;;;;;;;4.43;2.97;;;10.70;99.90;;;;;;5007482;28;20907;-59
2021/10/07 10:28:55;;;;;;;4.47;2.57;;;10.70;99.90;;;;;;4998065;28;20474;-60
2021/10/07 10:31:33;;;;;;;2.87;2.30;;;10.70;99.90;;;;;;4992248;28;20842;-60
2021/10/07 10:34:08;;;;;;;3.10;2.33;;;10.70;99.90;;;;;;5009315;28;20711;-59
2021/10/07 10:36:44;;;;;;;2.50;2.30;;;10.70;99.90;;;;;;5010739;28;20455;-61
2021/10/07 10:39:14;;;;;;;2.53;2.33;;;10.70;99.90;;;;;;5005754;28;20422;-60
2021/10/07 10:41:45;;;;;;;2.57;2.10;;;10.70;99.90;;;;;;5002643;28;20527;-60
2021/10/07 10:44:30;;;;;;;2.53;2.33;;;10.70;99.90;;;;;;5008667;28;20509;-60
2021/10/07 10:47:08;;;;;;;1.90;1.80;;;10.60;99.90;;;;;;4999814;28;20797;-60
2021/10/07 10:49:51;;;;;;;2.20;2.10;;;10.60;99.90;;;;;;5010586;28;20526;-60
2021/10/07 10:52:20;;;;;;;3.43;1.87;;;10.60;99.90;;;;;;5011599;28;20965;-60
2021/10/07 10:54:48;;;;;;;6.40;2.30;;;10.60;99.90;;;;;;5010396;28;20490;-60
2021/10/07 10:57:37;;;;;;;3.27;2.60;;;10.60;99.90;;;;;;5008588;28;20459;-59
2021/10/07 11:00:10;;;;;;;1.97;1.87;;;10.70;99.90;;;;;;5010517;28;20407;-60
2021/10/07 11:02:46;;;;;;;2.83;2.37;;;10.60;99.90;;;;;;5003967;28;20438;-59
2021/10/07 11:05:22;;;;;;;3.60;2.40;;;10.60;99.90;;;;;;5000421;28;21521;-60
2021/10/07 11:08:19;;;;;;;2.90;2.43;;;10.60;99.90;;;;;;5009135;28;20993;-59
2021/10/07 11:10:55;;;;;;;5.83;2.80;;;10.50;99.90;;;;;;5009423;28;20426;-59
2021/10/07 11:13:33;;;;;;;3.17;2.77;;;10.50;99.90;;;;;;5025841;28;20963;-60
2021/10/07 11:16:01;;;;;;;4.23;2.80;;;10.50;99.90;;;;;;5009270;28;20994;-59
2021/10/07 11:18:33;;;;;;;4.50;3.00;;;10.50;99.90;;;;;;5010453;28;20431;-60
2021/10/07 11:21:06;;;;;;;4.77;2.90;;;10.50;99.90;;;;;;5011894;28;20904;-58
2021/10/07 11:23:33;;;;;;;3.83;2.77;;;10.60;99.90;;;;;;5009001;28;20955;-59
2021/10/07 11:26:00;;;;;;;2.83;2.50;;;10.70;99.90;;;;;;5006974;28;20443;-60
2021/10/07 11:28:31;;;;;;;3.00;2.80;;;10.80;99.90;;;;;;5010976;28;20752;-58
2021/10/07 11:31:07;;;;;;;3.43;2.80;;;10.90;99.90;;;;;;5025841;28;20462;-60
2021/10/07 11:33:36;;;;;;;4.83;3.60;;;11.00;99.90;;;;;;5009026;28;20998;-59
2021/10/07 11:36:06;;;;;;;10.90;2.90;;;11.10;99.90;;;;;;4999687;28;20874;-60
2021/10/07 11:38:36;;;;;;;4.17;2.40;;;11.10;99.90;;;;;;5000331;28;20920;-60
2021/10/07 11:41:01;;;;;;;3.70;2.47;;;11.20;99.90;;;;;;5010484;28;20422;-59
2021/10/07 11:43:30;;;;;;;2.13;1.93;;;11.20;99.90;;;;;;5023864;22;20451;-60
2021/10/07 11:46:16;;;;;;;2.70;1.90;;;11.20;99.90;;;;;;5001898;28;20603;-59
2021/10/07 11:48:46;;;;;;;3.33;2.23;;;11.20;99.90;;;;;;4992029;28;20416;-60
2021/10/07 11:51:16;;;;;;;4.50;1.80;;;11.30;99.90;;;;;;4990809;28;20408;-59
2021/10/07 11:53:43;;;;;;;2.67;1.77;;;11.40;99.90;;;;;;4989042;28;20456;-60
2021/10/07 11:56:11;;;;;;;1.77;1.67;;;11.60;99.90;;;;;;4993431;28;20542;-60
2021/10/07 11:58:37;;;;;;;1.77;1.67;;;11.90;99.90;;;;;;5010848;28;20933;-59
2021/10/07 12:01:04;;;;;;;1.40;1.30;;;12.50;99.90;;;;;;4995020;28;20443;-57
2021/10/07 12:03:31;;;;;;;1.83;1.23;;;12.80;99.90;;;;;;4992743;28;20170;-58
2021/10/07 12:06:07;;;;;;;5.90;1.20;;;13.20;99.90;;;;;;4989770;28;20480;-58
2021/10/07 12:08:50;;;;;;;4.20;1.60;;;13.50;99.90;;;;;;4990338;28;20483;-58
2021/10/07 12:11:24;;;;;;;1.40;1.30;;;13.70;99.00;;;;;;4974708;28;20969;-57
2021/10/07 12:13:58;;;;;;;1.43;1.33;;;13.60;98.20;;;;;;4999109;28;20456;-58
2021/10/07 12:16:29;;;;;;;2.40;1.50;;;13.50;97.80;;;;;;4986138;28;20452;-58
2021/10/07 12:19:00;;;;;;;2.63;1.73;;;13.40;97.30;;;;;;4998225;28;20508;-57
2021/10/07 12:21:28;;;;;;;2.97;2.23;;;13.20;96.50;;;;;;4991674;28;20431;-59
2021/10/07 12:24:08;;;;;;;2.40;1.50;;;13.00;96.50;;;;;;4997509;28;20459;-54
2021/10/07 12:26:47;;;;;;;2.83;1.73;;;12.90;97.10;;;;;;4991494;28;20435;-59
2021/10/07 12:29:23;;;;;;;1.70;1.60;;;12.80;98.10;;;;;;4985468;28;20526;-56
2021/10/07 12:32:13;;;;;;;2.30;2.00;;;12.70;97.80;;;;;;4992288;28;20493;-58
2021/10/07 12:34:44;;;;;;;2.20;1.97;;;12.60;97.40;;;;;;4984768;28;20503;-56
2021/10/07 12:37:11;;;;;;;2.60;1.60;;;12.70;98.20;;;;;;4983028;28;20503;-57
2021/10/07 12:39:41;;;;;;;3.33;1.83;;;12.80;98.90;;;;;;4987873;28;20427;-56
2021/10/07 12:42:12;;;;;;;2.60;2.20;;;13.00;97.70;;;;;;4988127;28;20423;-58
2021/10/07 12:44:40;;;;;;;4.80;2.40;;;13.10;97.00;;;;;;5002636;28;20472;-57
2021/10/07 12:47:07;;;;;;;2.47;2.23;;;13.20;97.30;;;;;;4986448;28;20886;-57
2021/10/07 12:49:40;;;;;;;3.63;2.40;;;13.10;97.40;;;;;;4987619;28;20432;-58
2021/10/07 12:52:25;;;;;;;2.13;1.93;;;13.10;96.50;;;;;;4985287;28;20432;-57
2021/10/07 12:55:15;;;;;;;2.60;2.40;;;12.90;95.90;;;;;;4983869;28;20530;-60
2021/10/07 12:57:49;;;;;;;2.80;2.60;;;12.80;96.30;;;;;;4987248;28;20975;-59
2021/10/07 13:00:36;;;;;;;3.17;1.93;;;12.70;97.30;;;;;;4988408;28;20427;-57
2021/10/07 13:03:16;;;;;;;5.43;2.20;;;12.70;97.60;;;;;;5009068;28;20436;-61
2021/10/07 13:05:43;;;;;;;3.30;2.40;;;12.80;97.20;;;;;;5009693;28;20439;-59